Time;durP1;ratioP1;P1;durP2;ratioP2;P2;SDS_P1;SDS_P2;PMS_P1;PMS_P2;Temp;Humidity;BMP_temperature;BMP_pressure;BME280_temperature;BME280_humidity;BME280_pressure;Samples;Min_cycle;Max_cycle;Signal;HPM_P1;HPM_P2
2022/09/19 00:01:44;;;;;;;9.38;1.60;;;11.40;99.90;;;;;;4936292;29;20122;-94
2022/09/19 00:04:14;;;;;;;8.80;1.25;;;11.40;99.90;;;;;;4957458;29;20054;-93
2022/09/19 00:06:41;;;;;;;11.52;1.25;;;11.40;99.90;;;;;;4958089;29;20059;-93
2022/09/19 00:09:11;;;;;;;13.95;1.50;;;11.40;99.90;;;;;;4958403;28;20047;-92
2022/09/19 00:11:39;;;;;;;10.05;1.45;;;11.40;99.90;;;;;;4951424;29;20043;-91
2022/09/19 00:14:05;;;;;;;13.55;1.80;;;11.40;99.90;;;;;;4957352;28;20061;-92
2022/09/19 00:16:34;;;;;;;14.00;1.45;;;11.40;99.90;;;;;;4959471;28;20069;-92
2022/09/19 00:19:02;;;;;;;14.55;1.20;;;11.40;99.90;;;;;;4953643;28;20500;-93
2022/09/19 00:21:34;;;;;;;10.85;1.83;;;11.40;99.90;;;;;;4953199;29;20484;-93
2022/09/19 00:26:45;;;;;;;13.75;2.08;;;11.40;99.90;;;;;;4956330;29;20059;-93
2022/09/19 00:29:12;;;;;;;10.73;1.42;;;11.40;99.90;;;;;;4941903;29;20054;-93
2022/09/19 00:31:38;;;;;;;9.63;1.25;;;11.50;99.90;;;;;;4954317;29;20036;-93
2022/09/19 00:34:08;;;;;;;11.20;1.52;;;11.50;99.90;;;;;;4940296;29;20129;-94
2022/09/19 00:36:38;;;;;;;13.63;2.33;;;11.50;99.90;;;;;;4959915;28;20035;-94
2022/09/19 00:39:05;;;;;;;13.02;1.65;;;11.50;99.90;;;;;;4959337;28;20118;-94
2022/09/19 00:41:32;;;;;;;18.60;2.20;;;11.50;99.90;;;;;;4959365;29;20043;-93
2022/09/19 00:44:00;;;;;;;8.02;1.40;;;11.50;99.90;;;;;;4960756;28;20493;-93
2022/09/19 00:46:29;;;;;;;8.93;1.58;;;11.50;99.90;;;;;;4957592;28;20107;-92
2022/09/19 00:49:05;;;;;;;16.48;1.75;;;11.50;99.90;;;;;;4958776;29;20479;-93
2022/09/19 00:51:52;;;;;;;8.90;1.23;;;11.50;99.90;;;;;;4955898;29;20046;-94
2022/09/19 00:54:40;;;;;;;13.02;1.42;;;11.50;99.90;;;;;;4959481;29;20122;-93
2022/09/19 00:57:09;;;;;;;14.15;1.40;;;11.50;99.90;;;;;;4959687;28;20043;-93
2022/09/19 00:59:37;;;;;;;13.13;2.10;;;11.40;99.90;;;;;;4957159;28;20043;-95
2022/09/19 01:02:05;;;;;;;16.38;1.80;;;11.50;99.90;;;;;;4942123;29;20040;-93
2022/09/19 01:04:35;;;;;;;11.50;1.65;;;11.70;99.90;;;;;;4955728;29;20464;-95
2022/09/19 01:07:33;;;;;;;8.20;1.35;;;11.40;99.90;;;;;;4958563;29;20043;-94
2022/09/19 01:10:17;;;;;;;13.65;1.67;;;11.30;99.90;;;;;;4938040;29;20043;-94
2022/09/19 01:12:54;;;;;;;18.83;2.42;;;11.30;99.90;;;;;;4959749;28;20082;-94
2022/09/19 01:15:28;;;;;;;12.30;1.83;;;11.30;99.90;;;;;;4942614;29;20124;-94
2022/09/19 01:17:58;;;;;;;14.63;2.70;;;11.30;99.90;;;;;;4957883;29;20057;-94
2022/09/19 01:20:50;;;;;;;18.20;1.95;;;11.40;99.90;;;;;;4942457;29;20062;-94
2022/09/19 01:23:44;;;;;;;15.73;2.35;;;11.30;99.90;;;;;;4959257;29;20392;-94
2022/09/19 01:26:14;;;;;;;11.07;1.83;;;11.30;99.90;;;;;;4957633;29;20070;-95
2022/09/19 01:28:46;;;;;;;10.52;1.30;;;11.30;99.90;;;;;;4940498;28;20047;-94
2022/09/19 01:31:23;;;;;;;14.98;1.80;;;11.30;99.90;;;;;;4940747;29;20054;-92
2022/09/19 01:34:11;;;;;;;14.82;2.33;;;11.30;99.90;;;;;;4958299;29;20067;-93
2022/09/19 01:36:56;;;;;;;20.65;2.10;;;11.40;99.90;;;;;;4935677;29;20054;-92
2022/09/19 01:39:24;;;;;;;16.30;1.83;;;11.40;99.90;;;;;;4960885;28;20050;-93
2022/09/19 01:41:54;;;;;;;12.40;2.47;;;11.40;99.90;;;;;;4942283;29;20047;-93
2022/09/19 01:44:22;;;;;;;21.75;3.05;;;11.40;99.90;;;;;;4954386;29;20054;-94
2022/09/19 01:47:13;;;;;;;14.57;2.33;;;11.50;99.90;;;;;;4957457;28;20051;-93
2022/09/19 01:50:09;;;;;;;16.60;2.47;;;11.50;99.90;;;;;;4956087;28;20050;-94
2022/09/19 01:53:01;;;;;;;13.80;1.75;;;11.50;99.90;;;;;;4958996;28;20047;-94
2022/09/19 01:56:10;;;;;;;12.55;1.45;;;11.60;99.90;;;;;;4939099;29;20047;-94
2022/09/19 01:58:51;;;;;;;10.52;1.65;;;11.60;99.90;;;;;;4956749;29;20043;-94
2022/09/19 02:01:26;;;;;;;22.35;1.83;;;11.60;99.90;;;;;;4952264;29;20043;-95
2022/09/19 02:04:18;;;;;;;17.33;2.22;;;11.60;99.90;;;;;;4953676;28;20513;-94
2022/09/19 02:07:01;;;;;;;17.77;2.08;;;11.70;99.90;;;;;;4954754;29;20098;-95
2022/09/19 02:09:36;;;;;;;13.88;1.50;;;11.70;99.90;;;;;;4939262;29;20062;-94
2022/09/19 02:12:05;;;;;;;18.02;1.63;;;11.70;99.90;;;;;;4957259;28;20373;-93
2022/09/19 02:14:35;;;;;;;15.13;1.95;;;11.70;99.90;;;;;;4954740;29;20039;-94
2022/09/19 02:17:13;;;;;;;13.32;1.90;;;11.70;99.90;;;;;;4944545;29;20134;-95
2022/09/19 02:19:43;;;;;;;11.88;1.33;;;11.70;99.90;;;;;;4938484;29;20051;-93
2022/09/19 02:22:16;;;;;;;15.02;1.55;;;11.70;99.90;;;;;;4940916;29;20072;-94
2022/09/19 02:24:45;;;;;;;12.10;1.70;;;11.70;99.90;;;;;;4958563;28;20098;-94
2022/09/19 02:27:20;;;;;;;17.40;1.30;;;11.70;99.90;;;;;;4958220;28;20459;-93
2022/09/19 02:29:52;;;;;;;12.93;2.05;;;11.60;99.90;;;;;;4941015;29;20400;-93
2022/09/19 02:32:19;;;;;;;13.05;1.98;;;11.70;99.90;;;;;;4940304;29;21428;-94
2022/09/19 02:34:49;;;;;;;14.70;2.00;;;11.60;99.90;;;;;;4950832;28;20429;-93
2022/09/19 02:37:35;;;;;;;11.20;1.90;;;11.70;99.90;;;;;;4957827;28;20076;-93
2022/09/19 02:40:23;;;;;;;11.60;1.75;;;11.70;99.90;;;;;;4955017;29;20039;-93
2022/09/19 02:42:57;;;;;;;15.75;1.73;;;11.70;99.90;;;;;;4950725;29;20591;-94
2022/09/19 02:45:34;;;;;;;16.65;1.70;;;11.70;99.90;;;;;;4956670;29;20039;-95
2022/09/19 02:48:11;;;;;;;13.63;1.42;;;11.70;99.90;;;;;;4939880;29;20194;-94
2022/09/19 02:50:48;;;;;;;17.10;2.00;;;11.70;99.90;;;;;;4937602;29;20055;-93
2022/09/19 02:53:24;;;;;;;17.50;2.83;;;11.70;99.90;;;;;;4956833;29;20783;-94
2022/09/19 02:55:56;;;;;;;12.30;1.60;;;11.70;99.90;;;;;;4933873;29;20093;-91
2022/09/19 02:58:23;;;;;;;11.65;2.20;;;11.70;99.90;;;;;;4959447;28;20066;-94
2022/09/19 03:00:54;;;;;;;15.15;1.45;;;11.60;99.90;;;;;;4960679;29;20043;-93
2022/09/19 03:06:13;;;;;;;13.90;2.05;;;11.60;99.90;;;;;;4954417;29;20150;-93
2022/09/19 03:08:39;;;;;;;10.20;1.40;;;11.60;99.90;;;;;;4961061;28;20039;-93
2022/09/19 03:11:14;;;;;;;10.02;1.10;;;11.50;99.90;;;;;;4945012;29;20066;-93
2022/09/19 03:13:41;;;;;;;15.52;1.35;;;11.50;99.90;;;;;;4961955;29;20055;-94
2022/09/19 03:16:23;;;;;;;10.18;1.58;;;11.50;99.90;;;;;;4966387;28;20152;-93
2022/09/19 03:18:54;;;;;;;10.88;1.50;;;11.40;99.90;;;;;;4963519;29;20059;-93
2022/09/19 03:21:22;;;;;;;11.00;0.90;;;11.40;99.90;;;;;;4941226;29;20044;-94
2022/09/19 03:23:52;;;;;;;12.73;1.30;;;11.30;99.90;;;;;;4961769;28;20082;-94
2022/09/19 03:26:25;;;;;;;16.15;1.67;;;11.30;99.90;;;;;;4960630;29;20039;-93
2022/09/19 03:28:53;;;;;;;9.63;1.30;;;11.30;99.90;;;;;;4959972;29;20132;-94
2022/09/19 03:31:18;;;;;;;12.30;2.10;;;11.20;99.90;;;;;;4927780;29;20039;-94
2022/09/19 03:33:46;;;;;;;12.30;1.40;;;11.20;99.90;;;;;;4958016;28;20073;-93
2022/09/19 03:36:12;;;;;;;11.20;1.42;;;11.30;99.90;;;;;;4958343;29;20141;-94
2022/09/19 03:38:42;;;;;;;11.18;1.27;;;11.30;99.90;;;;;;4958375;29;20071;-94
2022/09/19 03:41:08;;;;;;;12.38;1.40;;;11.30;99.90;;;;;;4960795;29;20118;-93
2022/09/19 03:43:34;;;;;;;11.18;1.67;;;11.30;99.90;;;;;;4927702;29;20528;-93
2022/09/19 03:45:59;;;;;;;11.32;1.42;;;11.30;99.90;;;;;;4956075;29;20058;-94
2022/09/19 03:48:26;;;;;;;12.63;1.40;;;11.30;99.90;;;;;;4943822;29;20063;-94
2022/09/19 03:50:53;;;;;;;10.63;1.10;;;11.30;99.90;;;;;;4960803;29;20043;-94
2022/09/19 03:53:20;;;;;;;15.50;1.40;;;11.30;99.90;;;;;;4964937;28;20109;-93
2022/09/19 03:55:46;;;;;;;17.38;1.50;;;11.30;99.90;;;;;;4961146;28;20043;-93
2022/09/19 03:58:12;;;;;;;12.30;1.70;;;11.30;99.90;;;;;;4942725;29;20122;-93
2022/09/19 04:00:38;;;;;;;18.98;2.13;;;11.40;99.90;;;;;;4957150;28;20054;-94
2022/09/19 04:03:04;;;;;;;16.23;1.65;;;11.40;99.90;;;;;;4943271;29;20051;-92
2022/09/19 04:05:32;;;;;;;13.02;1.77;;;11.40;99.90;;;;;;4943255;29;20055;-92
2022/09/19 04:07:58;;;;;;;14.32;1.92;;;11.40;99.90;;;;;;4959011;29;20070;-94
2022/09/19 04:10:23;;;;;;;14.82;1.70;;;11.40;99.90;;;;;;4960120;28;20039;-94
2022/09/19 04:12:50;;;;;;;13.43;1.83;;;11.40;99.90;;;;;;4937980;29;20063;-94
2022/09/19 04:15:16;;;;;;;10.65;1.48;;;11.40;99.90;;;;;;4959528;29;20078;-95
2022/09/19 04:17:42;;;;;;;15.77;1.65;;;11.40;99.90;;;;;;4942811;29;20086;-94
2022/09/19 04:20:10;;;;;;;16.98;1.70;;;11.40;99.90;;;;;;4958679;29;20051;-94
2022/09/19 04:22:37;;;;;;;15.30;2.28;;;11.40;99.90;;;;;;4959168;28;20125;-94
2022/09/19 04:25:12;;;;;;;21.13;2.20;;;11.40;99.90;;;;;;4959464;29;20511;-94
2022/09/19 04:27:40;;;;;;;22.17;2.90;;;11.30;99.90;;;;;;4941147;29;20067;-95
2022/09/19 04:30:07;;;;;;;14.52;1.80;;;11.30;99.90;;;;;;4926181;29;20047;-94
2022/09/19 04:32:32;;;;;;;21.30;2.25;;;11.30;99.90;;;;;;4959963;29;20091;-95
2022/09/19 04:34:59;;;;;;;25.35;2.30;;;11.30;99.90;;;;;;4960437;28;20051;-92
2022/09/19 04:37:29;;;;;;;12.73;1.88;;;11.40;99.90;;;;;;4938984;29;20107;-93
2022/09/19 04:39:55;;;;;;;11.68;2.38;;;11.50;99.90;;;;;;4958453;29;20043;-96
2022/09/19 04:42:21;;;;;;;12.98;2.08;;;11.40;99.90;;;;;;4960091;29;20043;-94
2022/09/19 04:44:46;;;;;;;12.77;1.98;;;11.40;99.90;;;;;;4941760;29;20106;-95
2022/09/19 04:47:14;;;;;;;11.30;1.38;;;11.40;99.90;;;;;;4926956;29;20108;-93
2022/09/19 04:49:40;;;;;;;10.20;1.27;;;11.40;99.90;;;;;;4941852;29;20113;-94
2022/09/19 04:52:06;;;;;;;9.82;2.30;;;11.40;99.90;;;;;;4942746;29;20062;-94
2022/09/19 04:54:35;;;;;;;11.63;1.35;;;11.40;99.90;;;;;;4959941;29;20051;-94
2022/09/19 04:57:02;;;;;;;8.43;1.45;;;11.40;99.90;;;;;;4942991;29;20047;-93
2022/09/19 04:59:28;;;;;;;10.95;1.92;;;11.40;99.90;;;;;;4958727;29;20051;-94
2022/09/19 05:01:54;;;;;;;14.55;1.80;;;11.40;99.90;;;;;;4959895;29;20385;-94
2022/09/19 05:04:19;;;;;;;10.48;1.20;;;11.40;99.90;;;;;;4959999;29;20063;-94
2022/09/19 05:06:45;;;;;;;15.73;1.35;;;11.40;99.90;;;;;;4961835;28;20058;-93
2022/09/19 05:09:11;;;;;;;8.50;1.73;;;11.50;99.90;;;;;;4928178;29;20058;-94
2022/09/19 05:11:40;;;;;;;17.33;1.33;;;11.50;99.90;;;;;;4960268;28;20040;-94
2022/09/19 05:14:09;;;;;;;17.65;1.90;;;11.50;99.90;;;;;;4947539;29;20642;-94
2022/09/19 05:16:35;;;;;;;17.90;2.40;;;11.50;99.90;;;;;;4960786;29;20046;-94
2022/09/19 05:19:00;;;;;;;18.23;1.70;;;11.50;99.90;;;;;;4925879;29;20048;-94
2022/09/19 05:21:26;;;;;;;11.40;2.35;;;11.60;99.90;;;;;;4957909;28;20050;-94
2022/09/19 05:23:52;;;;;;;16.00;1.80;;;11.60;99.90;;;;;;4945945;29;20043;-93
2022/09/19 05:26:18;;;;;;;9.82;1.63;;;11.50;99.90;;;;;;4942036;29;20047;-93
2022/09/19 05:28:47;;;;;;;16.45;2.38;;;11.50;99.90;;;;;;4946589;29;20071;-94
2022/09/19 05:31:16;;;;;;;23.15;2.30;;;11.50;99.90;;;;;;4956939;28;20040;-94
2022/09/19 05:33:41;;;;;;;20.67;2.22;;;11.50;99.90;;;;;;4944511;29;20059;-92
2022/09/19 05:36:07;;;;;;;15.27;2.45;;;11.40;99.90;;;;;;4947752;29;20040;-95
2022/09/19 05:38:33;;;;;;;21.95;2.40;;;11.50;99.90;;;;;;4953502;28;20039;-93
2022/09/19 05:41:01;;;;;;;20.08;2.33;;;11.50;99.90;;;;;;4944698;29;20051;-93
2022/09/19 05:43:27;;;;;;;15.02;2.25;;;11.50;99.90;;;;;;4944278;29;20511;-94
2022/09/19 05:45:54;;;;;;;20.65;3.03;;;11.50;99.90;;;;;;4944871;29;20051;-93
2022/09/19 05:48:21;;;;;;;25.25;2.30;;;11.60;99.90;;;;;;4945074;29;20086;-94
2022/09/19 05:50:48;;;;;;;15.35;2.40;;;11.60;99.90;;;;;;4965704;29;20058;-93
2022/09/19 05:56:00;;;;;;;18.63;1.92;;;11.60;99.90;;;;;;4965677;28;20047;-92
2022/09/19 05:58:27;;;;;;;16.02;2.80;;;11.70;99.90;;;;;;4960078;29;20071;-93
2022/09/19 06:00:53;;;;;;;21.08;2.75;;;11.70;99.90;;;;;;4964730;29;20444;-93
2022/09/19 06:03:21;;;;;;;22.30;2.08;;;11.70;99.90;;;;;;4965448;29;20054;-89
2022/09/19 06:05:50;;;;;;;17.30;2.45;;;11.70;99.90;;;;;;4943569;29;20484;-93
2022/09/19 06:08:18;;;;;;;12.25;2.17;;;11.70;99.90;;;;;;4930122;29;20054;-94
2022/09/19 06:10:44;;;;;;;14.18;1.73;;;11.80;99.90;;;;;;4936039;29;20047;-95
2022/09/19 06:13:16;;;;;;;13.10;1.60;;;11.80;99.90;;;;;;4949372;29;20058;-88
2022/09/19 06:15:41;;;;;;;15.25;1.95;;;11.80;99.90;;;;;;4953964;28;20043;-93
2022/09/19 06:18:09;;;;;;;16.13;2.28;;;11.80;99.90;;;;;;4935809;29;20664;-93
2022/09/19 06:20:36;;;;;;;13.80;1.80;;;11.80;99.90;;;;;;4950615;29;20296;-93
2022/09/19 06:23:03;;;;;;;12.38;1.60;;;11.80;99.90;;;;;;4952054;29;20043;-93
2022/09/19 06:25:30;;;;;;;19.58;2.00;;;11.80;99.90;;;;;;4949508;29;20515;-93
2022/09/19 06:27:58;;;;;;;12.18;1.75;;;11.70;99.90;;;;;;4951359;29;20039;-93
2022/09/19 06:30:24;;;;;;;11.43;2.13;;;11.70;99.90;;;;;;4931185;29;20039;-95
2022/09/19 06:32:53;;;;;;;13.55;2.08;;;11.70;99.90;;;;;;4949742;28;20063;-94
2022/09/19 06:35:20;;;;;;;20.58;1.95;;;11.70;99.90;;;;;;4945984;28;20091;-92
2022/09/19 06:37:47;;;;;;;14.30;1.77;;;11.80;99.90;;;;;;4948929;28;20126;-92
2022/09/19 06:40:14;;;;;;;15.45;2.97;;;11.80;99.90;;;;;;4949557;28;20392;-93
2022/09/19 06:42:40;;;;;;;16.27;2.10;;;11.90;99.90;;;;;;4950620;29;20145;-94
2022/09/19 06:45:07;;;;;;;17.38;2.28;;;12.00;99.90;;;;;;4950900;29;20070;-92
2022/09/19 06:47:33;;;;;;;12.98;1.60;;;12.20;99.90;;;;;;4950761;28;20039;-95
2022/09/19 06:50:02;;;;;;;10.57;1.17;;;12.20;99.90;;;;;;4949311;28;20067;-93
2022/09/19 06:52:28;;;;;;;8.75;1.20;;;12.20;99.90;;;;;;4947763;28;20152;-91
2022/09/19 06:54:54;;;;;;;14.15;1.40;;;12.30;99.90;;;;;;4943179;28;20133;-92
2022/09/19 06:57:20;;;;;;;12.88;1.95;;;12.30;99.90;;;;;;4946897;29;20039;-93
2022/09/19 06:59:46;;;;;;;7.80;1.25;;;12.40;99.90;;;;;;4945668;28;20170;-94
2022/09/19 07:02:13;;;;;;;13.10;2.50;;;12.40;99.90;;;;;;4948256;29;20126;-92
2022/09/19 07:04:39;;;;;;;12.80;1.67;;;12.50;99.90;;;;;;4948321;29;20055;-90
2022/09/19 07:07:05;;;;;;;10.70;1.83;;;12.50;99.90;;;;;;4948740;29;20098;-91
2022/09/19 07:09:30;;;;;;;11.95;1.95;;;12.50;99.90;;;;;;4947368;28;20047;-92
2022/09/19 07:11:56;;;;;;;20.05;2.45;;;12.50;99.90;;;;;;4928459;28;20112;-93
2022/09/19 07:14:25;;;;;;;8.20;1.42;;;12.50;99.90;;;;;;4936024;29;20039;-92
2022/09/19 07:16:50;;;;;;;11.95;1.90;;;12.40;99.90;;;;;;4931310;28;20400;-93
2022/09/19 07:19:16;;;;;;;13.93;2.10;;;12.40;99.90;;;;;;4943441;28;20050;-92
2022/09/19 07:21:42;;;;;;;13.38;1.80;;;12.30;99.90;;;;;;4931727;29;20046;-94
2022/09/19 07:24:08;;;;;;;11.30;1.92;;;12.30;99.90;;;;;;4933086;29;20043;-93
2022/09/19 07:26:34;;;;;;;11.52;1.45;;;12.30;99.90;;;;;;4930201;29;20042;-92
2022/09/19 07:28:59;;;;;;;9.57;1.60;;;12.30;99.90;;;;;;4930936;29;20155;-93
2022/09/19 07:31:28;;;;;;;10.30;1.30;;;12.40;99.90;;;;;;4944105;28;20043;-91
2022/09/19 07:33:54;;;;;;;15.25;1.50;;;12.40;99.90;;;;;;4954431;28;20047;-93
2022/09/19 07:36:23;;;;;;;10.45;1.65;;;12.40;99.90;;;;;;4935002;29;20083;-93
2022/09/19 07:38:50;;;;;;;11.38;1.48;;;12.50;99.90;;;;;;4953239;28;20052;-94
2022/09/19 07:41:16;;;;;;;13.38;1.55;;;12.50;99.90;;;;;;4949963;28;20043;-94
2022/09/19 07:43:42;;;;;;;14.35;1.92;;;12.50;99.90;;;;;;4951534;28;20147;-91
2022/09/19 07:46:08;;;;;;;11.90;2.13;;;12.60;99.90;;;;;;4950247;29;20095;-94
2022/09/19 07:48:34;;;;;;;8.05;1.65;;;12.80;99.90;;;;;;4942437;29;20177;-84
2022/09/19 07:51:02;;;;;;;13.15;2.00;;;12.80;99.90;;;;;;4938109;29;20047;-95
2022/09/19 07:53:28;;;;;;;12.80;2.25;;;12.90;99.90;;;;;;4955734;29;20039;-95
2022/09/19 07:55:57;;;;;;;14.60;2.75;;;13.00;99.90;;;;;;4955575;29;20043;-95
2022/09/19 07:58:26;;;;;;;15.85;2.05;;;13.10;99.90;;;;;;4953861;29;20492;-94
2022/09/19 08:00:52;;;;;;;12.18;2.72;;;13.20;99.90;;;;;;4954181;29;20400;-94
2022/09/19 08:03:20;;;;;;;15.13;2.10;;;13.40;99.90;;;;;;4938396;29;20063;-95
2022/09/19 08:05:47;;;;;;;10.73;1.50;;;13.50;99.90;;;;;;4933803;29;20082;-95
2022/09/19 08:08:15;;;;;;;14.20;1.90;;;13.60;99.90;;;;;;4938697;29;20047;-94
2022/09/19 08:10:42;;;;;;;11.57;1.42;;;13.50;99.90;;;;;;4953791;29;20400;-94
2022/09/19 08:13:09;;;;;;;14.18;1.65;;;13.50;99.90;;;;;;4939470;29;20047;-94
2022/09/19 08:15:36;;;;;;;10.60;1.40;;;13.40;99.90;;;;;;4956527;29;20054;-94
2022/09/19 08:18:14;;;;;;;11.25;1.33;;;13.30;99.90;;;;;;4951062;29;20031;-94
2022/09/19 08:20:41;;;;;;;12.57;1.60;;;13.20;99.90;;;;;;4954394;29;21570;-95
2022/09/19 08:23:10;;;;;;;11.65;1.48;;;13.10;99.90;;;;;;4938811;29;20043;-94
2022/09/19 08:25:42;;;;;;;15.73;1.83;;;13.00;99.90;;;;;;4936783;29;20077;-95
2022/09/19 08:28:09;;;;;;;11.90;1.70;;;13.00;99.90;;;;;;4949105;29;20044;-94
2022/09/19 08:30:35;;;;;;;16.38;1.70;;;13.00;99.90;;;;;;4939206;28;20672;-95
2022/09/19 08:33:06;;;;;;;11.10;1.25;;;13.00;99.90;;;;;;4941494;29;20051;-94
2022/09/19 08:35:37;;;;;;;14.32;2.63;;;12.90;99.90;;;;;;4955711;29;20105;-95
2022/09/19 08:38:04;;;;;;;17.73;2.88;;;12.80;99.90;;;;;;4938330;29;20122;-95
2022/09/19 08:40:40;;;;;;;12.38;2.15;;;13.00;99.90;;;;;;4938171;29;20082;-94
2022/09/19 08:43:16;;;;;;;10.02;1.52;;;12.70;99.90;;;;;;4954558;28;20480;-95
2022/09/19 08:46:10;;;;;;;16.00;2.10;;;12.70;99.90;;;;;;4951133;29;20039;-95
2022/09/19 08:49:05;;;;;;;10.75;1.52;;;12.70;99.90;;;;;;4950413;28;20078;-94
2022/09/19 08:51:51;;;;;;;14.52;2.28;;;12.70;99.90;;;;;;4932428;29;20162;-95
2022/09/19 08:54:46;;;;;;;13.02;2.38;;;12.80;99.90;;;;;;4944643;28;20039;-95
2022/09/19 08:57:29;;;;;;;14.02;2.53;;;12.90;99.90;;;;;;4937994;29;20054;-95
2022/09/19 09:00:00;;;;;;;13.25;2.60;;;13.10;99.90;;;;;;4938334;29;20039;-96
2022/09/19 09:02:46;;;;;;;13.80;1.90;;;13.20;99.90;;;;;;4938509;29;20423;-95
2022/09/19 09:05:22;;;;;;;12.02;1.90;;;13.30;99.90;;;;;;4948182;29;20059;-96
2022/09/19 09:07:57;;;;;;;15.27;2.75;;;13.50;99.90;;;;;;4953723;29;20473;-95
2022/09/19 09:10:32;;;;;;;16.80;3.05;;;13.60;99.90;;;;;;4931318;29;20051;-95
2022/09/19 09:13:37;;;;;;;12.85;1.95;;;13.80;99.90;;;;;;4937286;29;20101;-95
2022/09/19 09:16:19;;;;;;;15.90;1.70;;;14.00;99.90;;;;;;4938575;29;20058;-94
2022/09/19 09:19:08;;;;;;;12.07;1.40;;;14.20;99.90;;;;;;4950668;29;20039;-93
2022/09/19 09:21:52;;;;;;;12.50;1.80;;;14.30;99.90;;;;;;4936137;29;20087;-94
2022/09/19 09:24:26;;;;;;;12.75;1.90;;;14.50;99.90;;;;;;4937984;29;20047;-94
2022/09/19 09:26:56;;;;;;;18.67;2.38;;;14.60;99.90;;;;;;4934574;29;20047;-93
2022/09/19 09:29:35;;;;;;;12.52;1.92;;;14.80;99.90;;;;;;4934169;29;20458;-93
2022/09/19 09:32:08;;;;;;;12.30;1.83;;;14.90;99.90;;;;;;4932016;29;20078;-94
2022/09/19 09:34:40;;;;;;;13.23;1.52;;;15.00;99.90;;;;;;4939111;29;20046;-94
2022/09/19 09:37:19;;;;;;;12.07;1.60;;;15.20;99.90;;;;;;4935745;29;20054;-94
2022/09/19 09:39:59;;;;;;;13.98;1.88;;;15.80;99.90;;;;;;4938164;29;20476;-92
2022/09/19 09:42:36;;;;;;;10.48;1.80;;;15.50;99.90;;;;;;4941481;29;20058;-91
2022/09/19 09:45:30;;;;;;;17.92;2.08;;;15.70;99.90;;;;;;4945842;28;20432;-93
2022/09/19 09:48:04;;;;;;;15.52;1.92;;;15.80;99.90;;;;;;4953056;28;20086;-93
2022/09/19 09:50:40;;;;;;;15.65;2.13;;;15.70;99.90;;;;;;4954861;29;20051;-93
2022/09/19 09:53:23;;;;;;;11.43;1.80;;;15.60;99.90;;;;;;4954580;29;20099;-93
2022/09/19 09:56:14;;;;;;;9.55;1.83;;;15.50;99.90;;;;;;4950409;29;20055;-93
2022/09/19 09:59:04;;;;;;;11.15;1.77;;;15.40;99.90;;;;;;4954459;29;20043;-93
2022/09/19 10:04:45;;;;;;;8.93;0.93;;;14.90;99.90;;;;;;4955291;28;20051;-94
2022/09/19 10:07:35;;;;;;;7.57;1.00;;;14.60;99.90;;;;;;4957499;28;20051;-93
2022/09/19 10:10:09;;;;;;;5.90;1.00;;;14.30;99.90;;;;;;4959028;29;20051;-94
2022/09/19 10:12:41;;;;;;;;;;;14.10;99.90;;;;;;4943485;29;20051;-93
2022/09/19 10:15:13;;;;;;;7.28;1.00;;;13.80;99.90;;;;;;4941987;29;19993;-94
2022/09/19 10:17:45;;;;;;;5.65;0.90;;;13.50;99.90;;;;;;4941657;29;20051;-93
2022/09/19 10:20:31;;;;;;;8.70;1.30;;;13.30;99.90;;;;;;4955628;29;20063;-94
2022/09/19 10:22:57;;;;;;;9.88;0.95;;;13.20;99.90;;;;;;4941385;29;20035;-93
2022/09/19 10:25:23;;;;;;;9.43;1.45;;;13.10;99.90;;;;;;4941794;29;20093;-94
2022/09/19 10:27:49;;;;;;;10.25;2.08;;;13.00;99.90;;;;;;4958108;29;20400;-94
2022/09/19 10:30:24;;;;;;;12.32;1.90;;;13.00;99.90;;;;;;4938628;29;20126;-94
2022/09/19 10:32:50;;;;;;;8.02;1.20;;;13.00;99.90;;;;;;4958646;28;20059;-94
2022/09/19 10:35:26;;;;;;;10.73;1.65;;;13.00;99.90;;;;;;4934201;29;20048;-94
2022/09/19 10:38:10;;;;;;;12.48;2.13;;;12.90;99.90;;;;;;4942056;29;20051;-94
2022/09/19 10:40:36;;;;;;;9.95;1.23;;;13.00;99.90;;;;;;4958736;28;20126;-94
2022/09/19 10:43:02;;;;;;;12.07;1.40;;;13.00;99.90;;;;;;4957288;28;20079;-94
2022/09/19 10:45:37;;;;;;;11.75;1.38;;;13.10;99.90;;;;;;4938363;29;20408;-93
2022/09/19 10:48:05;;;;;;;7.43;1.00;;;13.20;99.90;;;;;;4959487;29;20098;-93
2022/09/19 10:50:32;;;;;;;10.35;1.55;;;13.30;99.90;;;;;;4958891;28;20099;-95
2022/09/19 10:53:05;;;;;;;10.98;1.85;;;13.70;99.90;;;;;;4934779;29;20428;-94
2022/09/19 10:55:35;;;;;;;9.73;2.40;;;13.70;99.90;;;;;;4941951;29;20054;-93
2022/09/19 10:58:03;;;;;;;11.82;1.92;;;13.80;99.90;;;;;;4951189;29;20070;-94
2022/09/19 11:00:54;;;;;;;13.82;2.45;;;14.10;99.90;;;;;;4954895;29;20062;-94
2022/09/19 11:03:23;;;;;;;10.75;1.75;;;14.40;99.90;;;;;;4935060;28;20059;-93
2022/09/19 11:06:10;;;;;;;11.25;1.77;;;14.70;99.90;;;;;;4935339;29;20067;-94
2022/09/19 11:08:53;;;;;;;10.05;1.70;;;14.80;99.90;;;;;;4957985;29;20055;-94
2022/09/19 11:11:45;;;;;;;12.75;1.75;;;14.90;99.90;;;;;;4942035;29;20063;-94
2022/09/19 11:14:18;;;;;;;8.60;1.02;;;15.00;99.90;;;;;;4957698;29;20058;-94
2022/09/19 11:17:29;;;;;;;9.40;1.27;;;15.10;99.90;;;;;;4940528;29;20075;-94
2022/09/19 11:20:19;;;;;;;9.85;1.90;;;15.30;99.90;;;;;;4943985;29;20126;-93
2022/09/19 11:23:10;;;;;;;10.57;1.23;;;15.50;99.90;;;;;;4936061;28;20448;-93
2022/09/19 11:26:13;;;;;;;10.93;1.65;;;15.70;99.90;;;;;;4952323;29;20062;-94
2022/09/19 11:29:07;;;;;;;9.45;1.80;;;15.90;99.90;;;;;;4937940;29;20658;-93
2022/09/19 11:32:06;;;;;;;12.85;1.83;;;16.00;99.90;;;;;;4961243;29;20050;-94
2022/09/19 11:34:47;;;;;;;11.65;1.75;;;16.20;99.90;;;;;;4943845;29;20082;-94
2022/09/19 11:37:41;;;;;;;10.95;1.65;;;16.30;99.90;;;;;;4939848;29;20125;-93
2022/09/19 11:40:29;;;;;;;8.65;1.80;;;16.50;99.90;;;;;;4944046;29;20081;-93
2022/09/19 11:43:23;;;;;;;8.82;2.20;;;17.00;99.90;;;;;;4953182;28;20051;-93
2022/09/19 11:46:03;;;;;;;11.68;2.13;;;16.80;99.90;;;;;;4943718;29;20035;-93
2022/09/19 11:48:39;;;;;;;9.18;1.65;;;16.90;99.90;;;;;;4955941;29;20122;-90
2022/09/19 11:51:21;;;;;;;12.82;1.90;;;16.90;99.90;;;;;;4957869;29;20054;-90
2022/09/19 11:54:04;;;;;;;10.55;2.05;;;16.70;99.90;;;;;;4956762;29;20043;-90
2022/09/19 11:56:51;;;;;;;12.60;2.05;;;16.50;99.90;;;;;;4954357;29;20067;-90
2022/09/19 11:59:30;;;;;;;11.00;1.80;;;16.20;99.90;;;;;;4940482;29;20054;-91
2022/09/19 12:02:20;;;;;;;10.80;1.70;;;16.20;99.90;;;;;;4956936;29;20050;-92
2022/09/19 12:05:11;;;;;;;8.48;1.40;;;16.40;99.90;;;;;;4950862;29;20071;-90
2022/09/19 12:07:47;;;;;;;13.25;1.55;;;16.60;99.90;;;;;;4941629;29;20061;-90
2022/09/19 12:10:21;;;;;;;10.45;1.40;;;17.00;99.90;;;;;;4938848;29;20057;-91
2022/09/19 12:12:57;;;;;;;8.38;1.35;;;17.00;99.90;;;;;;4956886;29;20043;-84
2022/09/19 12:15:27;;;;;;;10.60;1.60;;;17.10;99.90;;;;;;4954472;28;20043;-85
2022/09/19 12:18:01;;;;;;;15.90;1.80;;;17.30;99.90;;;;;;4953205;29;20046;-87
2022/09/19 12:20:42;;;;;;;;;;;17.20;99.90;;;;;;4936410;29;20476;-87
2022/09/19 12:26:06;;;;;;;14.00;2.70;;;17.20;99.90;;;;;;4955190;28;20401;-85
2022/09/19 12:28:52;;;;;;;20.10;3.05;;;16.90;99.90;;;;;;4949582;29;20048;-87
2022/09/19 12:31:25;;;;;;;11.98;1.52;;;16.70;99.90;;;;;;4949057;29;20125;-89
2022/09/19 12:33:58;;;;;;;17.27;2.03;;;16.60;99.90;;;;;;4955053;29;20047;-87
2022/09/19 12:36:30;;;;;;;14.85;1.88;;;16.50;99.90;;;;;;4939031;29;20098;-86
2022/09/19 12:39:05;;;;;;;14.27;1.70;;;16.70;99.90;;;;;;4953296;29;20098;-86
2022/09/19 12:41:57;;;;;;;15.32;1.85;;;16.90;99.90;;;;;;4951136;29;20058;-86
2022/09/19 12:44:51;;;;;;;13.02;2.00;;;17.00;99.90;;;;;;4936582;29;20054;-87
2022/09/19 12:47:35;;;;;;;12.75;2.25;;;16.90;99.90;;;;;;4932039;29;20047;-85
2022/09/19 12:50:21;;;;;;;10.35;1.90;;;16.90;99.90;;;;;;4939107;29;20098;-86
2022/09/19 12:53:02;;;;;;;9.98;1.60;;;16.90;99.90;;;;;;4952000;28;20571;-87
2022/09/19 12:55:57;;;;;;;15.50;2.25;;;17.00;99.90;;;;;;4953522;28;20047;-87
2022/09/19 12:58:31;;;;;;;;;;;17.20;99.90;;;;;;4954193;29;20035;-87
2022/09/19 13:01:19;;;;;;;12.85;1.77;;;17.30;99.90;;;;;;4936753;29;19922;-88
2022/09/19 13:03:52;;;;;;;11.07;1.85;;;17.30;99.90;;;;;;4952973;28;20167;-85
2022/09/19 13:06:25;;;;;;;9.52;1.30;;;17.30;99.90;;;;;;4951355;29;20043;-85
2022/09/19 13:09:20;;;;;;;12.48;1.48;;;17.30;99.90;;;;;;4952237;29;20054;-85
2022/09/19 13:12:00;;;;;;;;;;;17.30;99.90;;;;;;4947906;29;20055;-85
2022/09/19 13:14:44;;;;;;;11.55;1.70;;;17.40;99.90;;;;;;4950657;29;19938;-89
2022/09/19 13:25:29;;;;;;;14.07;2.28;;;17.40;99.90;;;;;;4955512;29;19926;-89
2022/09/19 13:28:19;;;;;;;12.52;1.67;;;17.30;99.90;;;;;;4937952;29;20059;-89
2022/09/19 13:31:12;;;;;;;11.55;1.60;;;17.10;99.90;;;;;;4935247;29;20102;-88
2022/09/19 13:33:45;;;;;;;10.70;1.23;;;17.20;99.90;;;;;;4938107;29;20416;-89